Taneyville, Missouri
Current Conditions -  °F | °C
As of 2:46 PM on Friday 31 Oct 2014 (Local Time) from KBBG Reporting Station
Clear Clear  
Wind Chill: 50°   Ceiling: Unl
Heat Index: 50°   Visibility: 10mi
Dew Point: 19°   Wind: 17mph
Humidity: 30%   Direction: 360°N
Pressure: 30.31"   Gusts: 25mph
Location:  36.74°N, 93.03°W
Report Text: KBBG 311946Z 36015G22KT 10SM SKC 10/M07 A3031
Loading
Personal Weather Stations






























Interactive Weather Map New forecast layout! Learn more

10-Day Weather Forecast

Advertisements
Track Severe Weather on mobile